createdAt,value
2019-01-24T00:04:43.503Z,47.70
2019-01-24T00:07:12.701Z,45.77
2019-01-24T00:09:41.880Z,48.27
2019-01-24T00:12:11.084Z,46.40
2019-01-24T00:14:40.261Z,48.90
2019-01-24T00:17:09.458Z,52.57
2019-01-24T00:19:38.630Z,47.80
2019-01-24T00:22:07.837Z,50.80
2019-01-24T00:24:37.013Z,48.17
2019-01-24T00:27:06.222Z,49.50
2019-01-24T00:29:35.402Z,47.53
2019-01-24T00:32:04.609Z,45.17
2019-01-24T00:34:34.131Z,49.23
2019-01-24T00:37:03.316Z,46.53
2019-01-24T00:39:32.520Z,41.80
2019-01-24T00:42:01.694Z,47.23
2019-01-24T00:44:30.898Z,48.33
2019-01-24T00:47:00.080Z,45.83
2019-01-24T00:49:29.623Z,50.77
2019-01-24T00:51:58.800Z,44.50
2019-01-24T00:54:28.004Z,45.30
2019-01-24T00:56:57.181Z,50.57
2019-01-24T00:59:26.390Z,51.67
2019-01-24T01:01:55.576Z,46.13
2019-01-24T01:04:29.676Z,50.00
2019-01-24T01:06:55.697Z,43.20
2019-01-24T01:09:24.909Z,43.83
2019-01-24T01:11:54.109Z,52.07
2019-01-24T01:14:23.295Z,50.43
2019-01-24T01:16:52.492Z,46.67
2019-01-24T01:19:21.673Z,43.73
2019-01-24T01:21:50.889Z,45.63
2019-01-24T01:24:20.436Z,40.40
2019-01-24T01:26:49.613Z,44.73
2019-01-24T01:29:18.816Z,45.37
2019-01-24T01:31:48.001Z,39.93
2019-01-24T01:34:17.174Z,42.23
2019-01-24T01:36:46.384Z,44.07
2019-01-24T01:39:15.562Z,39.40
2019-01-24T01:41:45.024Z,42.67
2019-01-24T01:44:14.235Z,42.30
2019-01-24T01:46:43.732Z,45.03
2019-01-24T01:49:12.914Z,42.07
2019-01-24T01:51:42.129Z,40.73
2019-01-24T01:54:11.307Z,42.43
2019-01-24T01:56:40.504Z,42.00
2019-01-24T01:59:09.736Z,38.53
2019-01-24T02:01:38.900Z,40.77
2019-01-24T02:04:08.075Z,50.33
2019-01-24T02:06:37.283Z,43.80
2019-01-24T02:09:48.183Z,40.60
2019-01-24T02:12:17.391Z,43.27
2019-01-24T02:14:46.570Z,46.27
2019-01-24T02:17:16.084Z,46.23
2019-01-24T02:19:45.287Z,45.63
2019-01-24T02:22:14.473Z,46.33
2019-01-24T02:24:43.650Z,42.67
2019-01-24T02:27:12.864Z,44.23
2019-01-24T02:29:42.037Z,40.70
2019-01-24T02:32:11.210Z,39.57
2019-01-24T02:34:40.777Z,41.63
2019-01-24T02:37:09.955Z,40.57
2019-01-24T02:39:39.177Z,40.00
2019-01-24T02:42:08.349Z,44.80
2019-01-24T02:44:37.551Z,42.27
2019-01-24T02:47:06.737Z,39.80
2019-01-24T02:49:35.922Z,34.37
2019-01-24T02:52:44.525Z,37.50
2019-01-24T02:55:53.700Z,41.20
2019-01-24T02:58:22.907Z,43.50
2019-01-24T03:00:52.102Z,44.53
2019-01-24T03:03:21.320Z,38.37
2019-01-24T03:05:50.502Z,38.63
2019-01-24T03:08:19.678Z,38.13
2019-01-24T03:10:48.882Z,43.13
2019-01-24T03:13:18.410Z,35.17
2019-01-24T03:15:47.627Z,37.27
2019-01-24T03:18:16.803Z,38.67
2019-01-24T03:20:45.980Z,37.40
2019-01-24T03:23:15.186Z,35.40
2019-01-24T03:25:44.360Z,36.87
2019-01-24T03:28:13.898Z,36.00
2019-01-24T03:30:50.449Z,33.13
2019-01-24T03:33:19.654Z,41.70
2019-01-24T03:38:57.398Z,36.77
2019-01-24T03:41:26.573Z,41.67
2019-01-24T03:43:56.082Z,34.73
2019-01-24T03:46:25.590Z,34.57
2019-01-24T03:48:54.778Z,37.93
2019-01-24T03:51:23.970Z,36.57
2019-01-24T03:53:53.492Z,37.93
2019-01-24T03:56:22.698Z,36.37
2019-01-24T03:58:51.877Z,33.77
2019-01-24T04:01:21.058Z,35.03
2019-01-24T04:06:45.815Z,38.27
2019-01-24T04:09:15.036Z,37.17
2019-01-24T04:11:44.207Z,33.90
2019-01-24T04:14:13.385Z,35.13
2019-01-24T04:16:42.588Z,35.23
2019-01-24T04:19:11.775Z,40.23
2019-01-24T04:24:16.628Z,40.57
2019-01-24T04:26:45.844Z,39.50
2019-01-24T04:29:15.021Z,37.77
2019-01-24T04:31:44.582Z,45.83
2019-01-24T04:34:13.774Z,42.30
2019-01-24T04:36:42.952Z,38.57
2019-01-24T04:39:12.531Z,38.10
2019-01-24T04:42:00.676Z,38.93
2019-01-24T04:44:48.816Z,38.80
2019-01-24T04:47:17.995Z,44.67
2019-01-24T04:49:47.169Z,39.40
2019-01-24T04:52:16.718Z,37.47
2019-01-24T04:54:45.900Z,41.77
2019-01-24T04:57:15.099Z,45.27
2019-01-24T04:59:44.273Z,39.47
2019-01-24T05:02:13.474Z,47.50
2019-01-24T05:04:42.654Z,36.87
2019-01-24T05:07:11.831Z,41.47
2019-01-24T05:09:41.406Z,45.97
2019-01-24T05:12:11.023Z,46.97
2019-01-24T05:14:40.235Z,48.00
2019-01-24T05:17:09.424Z,49.33
2019-01-24T05:19:38.619Z,40.87
2019-01-24T05:22:07.927Z,50.10
2019-01-24T05:24:37.128Z,43.40
2019-01-24T05:27:06.610Z,41.60
2019-01-24T05:29:35.784Z,48.07
2019-01-24T05:32:05.412Z,39.20
2019-01-24T05:34:34.590Z,44.90
2019-01-24T05:37:03.793Z,40.40
2019-01-24T05:39:32.993Z,50.87
2019-01-24T05:42:02.170Z,45.93
2019-01-24T05:44:31.369Z,39.97
2019-01-24T05:47:00.556Z,47.47
2019-01-24T05:49:29.756Z,43.80
2019-01-24T05:51:58.927Z,42.07
2019-01-24T05:54:47.065Z,46.60
2019-01-24T05:57:16.239Z,42.03
2019-01-24T05:59:45.416Z,43.87
2019-01-24T06:02:14.933Z,43.70
2019-01-24T06:04:44.118Z,39.90
2019-01-24T06:07:13.343Z,40.57
2019-01-24T06:09:42.537Z,39.80
2019-01-24T06:12:12.118Z,44.47
2019-01-24T06:14:41.604Z,49.60
2019-01-24T06:17:10.808Z,41.07
2019-01-24T06:19:40.021Z,45.97
2019-01-24T06:22:09.229Z,47.93
2019-01-24T06:24:38.399Z,45.47
2019-01-24T06:27:07.568Z,40.07
2019-01-24T06:29:36.765Z,46.57
2019-01-24T06:35:14.517Z,46.93
2019-01-24T06:37:43.793Z,46.97
2019-01-24T06:40:14.162Z,44.77
2019-01-24T06:42:43.665Z,47.23
2019-01-24T06:45:18.004Z,44.63
2019-01-24T06:47:47.496Z,51.07
2019-01-24T06:50:16.913Z,47.63
2019-01-24T06:53:05.023Z,53.13
2019-01-24T06:55:34.228Z,54.07
2019-01-24T06:58:03.406Z,48.97
2019-01-24T07:00:32.599Z,47.17
2019-01-24T07:03:01.779Z,44.23
2019-01-24T07:05:30.988Z,47.93
2019-01-24T07:08:00.163Z,47.80
2019-01-24T07:11:08.754Z,49.33
2019-01-24T07:13:37.932Z,46.43
2019-01-24T07:16:07.136Z,51.53
2019-01-24T07:18:36.637Z,45.57
2019-01-24T07:21:05.839Z,49.90
2019-01-24T07:23:35.023Z,50.30
2019-01-24T07:26:04.218Z,50.63
2019-01-24T07:28:33.405Z,55.50
2019-01-24T07:31:02.605Z,58.00
2019-01-24T07:33:31.780Z,53.10
2019-01-24T07:36:02.374Z,55.90
2019-01-24T07:38:32.678Z,50.97
2019-01-24T07:41:02.177Z,48.37
2019-01-24T07:43:31.358Z,46.47
2019-01-24T07:46:00.560Z,54.17
2019-01-24T07:48:29.737Z,44.93
2019-01-24T07:53:47.111Z,46.93
2019-01-24T07:56:16.287Z,51.67
2019-01-24T07:58:45.817Z,51.90
2019-01-24T08:01:14.994Z,52.83
2019-01-24T08:03:44.519Z,49.20
2019-01-24T08:06:13.698Z,50.40
2019-01-24T08:08:42.877Z,49.50
2019-01-24T08:11:12.424Z,57.23
2019-01-24T08:13:41.598Z,44.13
2019-01-24T08:18:46.186Z,53.57
2019-01-24T08:21:54.776Z,53.53
2019-01-24T08:24:23.951Z,52.50
2019-01-24T08:26:53.154Z,55.73
2019-01-24T08:29:22.333Z,46.27
2019-01-24T08:31:51.535Z,47.13
2019-01-24T08:34:20.709Z,49.07
2019-01-24T08:36:49.930Z,48.07
2019-01-24T08:39:19.113Z,49.67
2019-01-24T08:41:48.327Z,59.83
2019-01-24T08:44:17.864Z,52.10
2019-01-24T08:46:47.038Z,53.57
2019-01-24T08:49:16.236Z,49.23
2019-01-24T08:51:45.414Z,52.27
2019-01-24T08:54:14.614Z,56.23
2019-01-24T08:56:43.787Z,48.83
2019-01-24T08:59:13.003Z,45.00
2019-01-24T09:01:42.451Z,49.63
2019-01-24T09:04:11.651Z,45.37
2019-01-24T09:06:41.153Z,46.60
2019-01-24T09:09:10.703Z,50.87
2019-01-24T09:11:39.886Z,50.10
2019-01-24T09:14:09.088Z,46.50
2019-01-24T09:16:38.563Z,50.07
2019-01-24T09:19:07.843Z,51.50
2019-01-24T09:21:37.363Z,43.23
2019-01-24T09:24:06.542Z,46.83
2019-01-24T09:26:35.748Z,49.57
2019-01-24T09:29:04.928Z,51.97
2019-01-24T09:31:34.131Z,54.63
2019-01-24T09:34:03.658Z,43.70
2019-01-24T09:36:32.859Z,41.17
2019-01-24T09:39:02.030Z,52.30
2019-01-24T09:41:31.236Z,44.30
2019-01-24T09:44:00.755Z,36.03
2019-01-24T09:46:29.963Z,38.63
2019-01-24T09:48:59.140Z,39.77
2019-01-24T09:51:28.314Z,35.60
2019-01-24T09:53:57.525Z,36.97
2019-01-24T09:56:27.052Z,30.33
2019-01-24T09:58:56.250Z,28.83
2019-01-24T10:01:25.435Z,26.10
2019-01-24T10:03:54.636Z,31.80
2019-01-24T10:06:23.816Z,25.37
2019-01-24T10:08:53.015Z,30.77
2019-01-24T10:11:23.549Z,25.13
2019-01-24T10:13:53.389Z,33.80
2019-01-24T10:16:22.614Z,27.50
2019-01-24T10:18:51.823Z,30.87
2019-01-24T10:21:21.003Z,35.17
2019-01-24T10:23:50.182Z,32.57
2019-01-24T10:26:19.400Z,37.23
2019-01-24T10:28:48.588Z,51.60
2019-01-24T10:31:17.811Z,48.03
2019-01-24T10:33:47.011Z,49.50
2019-01-24T10:36:16.214Z,43.63
2019-01-24T10:38:45.765Z,44.07
2019-01-24T10:41:14.962Z,42.53
2019-01-24T10:43:44.152Z,38.63
2019-01-24T10:46:13.667Z,32.50
2019-01-24T10:51:31.314Z,32.23
2019-01-24T10:54:00.532Z,38.50
2019-01-24T10:56:29.735Z,41.30
2019-01-24T10:58:58.928Z,38.20
2019-01-24T11:01:28.128Z,40.10
2019-01-24T11:03:57.306Z,39.23
2019-01-24T11:06:26.487Z,40.17
2019-01-24T11:08:56.003Z,39.30
2019-01-24T11:11:25.174Z,41.77
2019-01-24T11:13:54.390Z,43.53
2019-01-24T11:16:23.585Z,37.63
2019-01-24T11:18:52.790Z,37.00
2019-01-24T11:21:21.978Z,30.63
2019-01-24T11:23:51.196Z,33.10
2019-01-24T11:26:20.366Z,33.23
2019-01-24T11:28:49.563Z,34.23
2019-01-24T11:31:18.786Z,33.17
2019-01-24T11:33:47.974Z,32.80
2019-01-24T11:36:17.181Z,37.17
2019-01-24T11:38:46.351Z,42.07
2019-01-24T11:41:15.551Z,33.57
2019-01-24T11:43:44.726Z,34.57
2019-01-24T11:46:13.921Z,39.47
2019-01-24T11:48:43.470Z,35.03
2019-01-24T11:51:12.810Z,34.10
2019-01-24T11:54:01.068Z,30.30
2019-01-24T11:56:30.284Z,40.90
2019-01-24T11:58:59.456Z,30.70
2019-01-24T12:01:28.636Z,32.10
2019-01-24T12:03:58.215Z,33.00
2019-01-24T12:06:27.717Z,35.70
2019-01-24T12:08:56.915Z,39.03
2019-01-24T12:11:26.734Z,42.03
2019-01-24T12:13:55.964Z,42.57
2019-01-24T12:16:25.110Z,43.03
2019-01-24T12:18:54.410Z,43.47
2019-01-24T12:21:23.591Z,46.53
2019-01-24T12:23:52.791Z,43.60
2019-01-24T12:26:22.019Z,40.03
2019-01-24T12:28:51.212Z,44.00
2019-01-24T12:31:20.429Z,37.80
2019-01-24T12:33:49.616Z,40.03
2019-01-24T12:36:19.504Z,34.83
2019-01-24T12:38:50.054Z,38.17
2019-01-24T12:41:19.254Z,31.60
2019-01-24T12:43:48.434Z,35.93
2019-01-24T12:46:18.020Z,34.67
2019-01-24T12:48:47.308Z,39.20
2019-01-24T12:51:16.735Z,40.87
2019-01-24T12:53:45.919Z,32.97
2019-01-24T12:56:15.461Z,36.60
2019-01-24T12:58:44.647Z,39.93
2019-01-24T13:01:13.855Z,37.40
2019-01-24T13:03:43.404Z,32.40
2019-01-24T13:06:12.970Z,32.90
2019-01-24T13:08:42.267Z,34.27
2019-01-24T13:11:11.438Z,33.47
2019-01-24T13:13:40.759Z,34.90
2019-01-24T13:16:09.935Z,38.23
2019-01-24T13:18:39.126Z,36.73
2019-01-24T13:21:08.299Z,38.23
2019-01-24T13:23:37.898Z,38.43
2019-01-24T13:26:07.371Z,36.60
2019-01-24T13:28:36.570Z,38.63
2019-01-24T13:31:05.773Z,37.00
2019-01-24T13:33:35.003Z,37.80
2019-01-24T13:39:12.944Z,35.10
2019-01-24T13:41:42.493Z,35.20
2019-01-24T13:44:13.029Z,34.07
2019-01-24T13:46:42.527Z,36.33
2019-01-24T13:49:11.722Z,32.70
2019-01-24T13:51:40.926Z,38.63
2019-01-24T13:54:10.122Z,35.60
2019-01-24T13:56:39.322Z,46.33
2019-01-24T13:59:08.499Z,36.83
2019-01-24T14:01:37.708Z,35.77
2019-01-24T14:04:13.055Z,38.97
2019-01-24T14:06:42.255Z,35.27
2019-01-24T14:09:11.550Z,34.90
2019-01-24T14:11:59.747Z,33.33
2019-01-24T14:14:29.054Z,34.37
2019-01-24T14:16:58.256Z,38.37
2019-01-24T14:19:27.793Z,34.00
2019-01-24T14:21:57.011Z,33.23
2019-01-24T14:24:26.185Z,32.03
2019-01-24T14:26:55.362Z,35.03
2019-01-24T14:29:24.589Z,31.33
2019-01-24T14:31:54.090Z,36.03
2019-01-24T14:34:23.292Z,32.83
2019-01-24T14:36:52.646Z,32.13
2019-01-24T14:39:21.841Z,38.53
2019-01-24T14:41:51.394Z,36.17
2019-01-24T14:44:20.604Z,35.63
2019-01-24T14:46:49.774Z,37.73
2019-01-24T14:49:19.792Z,35.33
2019-01-24T14:51:49.874Z,33.93
2019-01-24T14:54:19.050Z,37.57
2019-01-24T14:56:48.248Z,37.70
2019-01-24T14:59:17.724Z,32.20
2019-01-24T15:01:46.923Z,33.40
2019-01-24T15:04:16.098Z,32.23
2019-01-24T15:06:45.303Z,33.60
2019-01-24T15:09:14.475Z,36.93
2019-01-24T15:11:43.671Z,36.37
2019-01-24T15:14:12.993Z,35.40
2019-01-24T15:16:42.231Z,32.73
2019-01-24T15:19:11.714Z,36.00
2019-01-24T15:21:41.215Z,35.93
2019-01-24T15:24:10.419Z,32.10
2019-01-24T15:26:39.605Z,35.37
2019-01-24T15:29:09.218Z,32.70
2019-01-24T15:31:38.401Z,32.37
2019-01-24T15:34:07.579Z,32.57
2019-01-24T15:36:36.782Z,29.40
2019-01-24T15:39:46.341Z,35.63
2019-01-24T15:42:15.861Z,33.60
2019-01-24T15:44:45.368Z,30.50
2019-01-24T15:47:14.581Z,29.63
2019-01-24T15:49:43.753Z,30.90
2019-01-24T15:55:01.115Z,35.23
2019-01-24T15:57:30.289Z,31.57
2019-01-24T15:59:59.499Z,32.00
2019-01-24T16:02:28.679Z,33.07
2019-01-24T16:04:57.851Z,31.50
2019-01-24T16:07:27.059Z,30.50
2019-01-24T16:09:56.243Z,32.20
2019-01-24T16:12:25.791Z,32.07
2019-01-24T16:14:54.967Z,29.97
2019-01-24T16:17:24.158Z,30.63
2019-01-24T16:19:53.351Z,32.30
2019-01-24T16:22:22.526Z,34.67
2019-01-24T16:24:51.731Z,36.73
2019-01-24T16:27:21.283Z,38.27
2019-01-24T16:29:50.516Z,32.30
2019-01-24T16:32:19.699Z,38.43
2019-01-24T16:34:49.178Z,36.83
2019-01-24T16:37:18.359Z,37.30
2019-01-24T16:39:47.571Z,36.70
2019-01-24T16:42:16.746Z,42.17
2019-01-24T16:44:45.923Z,38.83
2019-01-24T16:47:15.123Z,38.93
2019-01-24T16:49:44.317Z,36.10
2019-01-24T16:52:13.525Z,43.17
2019-01-24T16:54:42.698Z,44.83
2019-01-24T16:57:11.896Z,45.63
2019-01-24T16:59:41.067Z,44.93
2019-01-24T17:02:10.298Z,45.57
2019-01-24T17:04:39.445Z,49.20
2019-01-24T17:07:09.189Z,55.53
2019-01-24T17:09:38.834Z,54.50
2019-01-24T17:12:08.376Z,58.17
2019-01-24T17:14:37.555Z,51.83
2019-01-24T17:17:07.797Z,56.93
2019-01-24T17:19:55.993Z,55.37
2019-01-24T17:22:25.161Z,55.10
2019-01-24T17:24:54.360Z,53.37
2019-01-24T17:27:23.540Z,58.47
2019-01-24T17:29:53.103Z,55.93
2019-01-24T17:33:02.366Z,56.63
2019-01-24T17:35:31.563Z,53.17
2019-01-24T17:38:00.818Z,55.80
2019-01-24T17:40:49.099Z,53.57
2019-01-24T17:43:37.408Z,49.83
2019-01-24T17:46:06.618Z,49.33
2019-01-24T17:48:36.117Z,55.70
2019-01-24T17:51:06.616Z,57.10
2019-01-24T17:53:35.864Z,59.53
2019-01-24T17:56:05.243Z,59.90
2019-01-24T17:58:35.205Z,60.17
2019-01-24T18:01:04.525Z,60.07
2019-01-24T18:03:33.720Z,59.43
2019-01-24T18:06:02.902Z,58.20
2019-01-24T18:08:32.127Z,60.87
2019-01-24T18:11:01.300Z,81.83
2019-01-24T18:13:30.479Z,61.43
2019-01-24T18:15:59.995Z,61.27
2019-01-24T18:18:29.176Z,58.30
2019-01-24T18:21:37.925Z,61.80
2019-01-24T18:24:07.104Z,59.10
2019-01-24T18:26:36.656Z,57.40
2019-01-24T18:29:45.231Z,62.03
2019-01-24T18:32:14.850Z,55.03
2019-01-24T18:34:44.039Z,53.17
2019-01-24T18:37:13.245Z,57.37
2019-01-24T18:39:42.561Z,57.53
2019-01-24T18:42:31.231Z,55.27
2019-01-24T18:45:01.336Z,50.00
2019-01-24T18:47:30.512Z,55.47
2019-01-24T18:49:59.820Z,49.13
2019-01-24T18:52:29.003Z,54.87
2019-01-24T18:54:58.520Z,53.10
2019-01-24T18:57:27.714Z,50.03
2019-01-24T18:59:56.908Z,47.20
2019-01-24T19:02:26.419Z,48.00
2019-01-24T19:04:55.619Z,55.60
2019-01-24T19:07:24.798Z,55.80
2019-01-24T19:09:53.996Z,51.50
2019-01-24T19:12:23.184Z,55.77
2019-01-24T19:14:52.515Z,56.17
2019-01-24T19:17:21.702Z,46.53
2019-01-24T19:19:51.280Z,48.30
2019-01-24T19:22:20.736Z,49.93
2019-01-24T19:24:49.938Z,51.17
2019-01-24T19:27:19.116Z,48.13
2019-01-24T19:29:48.294Z,50.33
2019-01-24T19:32:17.812Z,54.27
2019-01-24T19:34:47.001Z,49.60
2019-01-24T19:37:16.515Z,50.13
2019-01-24T19:39:45.790Z,50.20
2019-01-24T19:42:15.320Z,52.43
2019-01-24T19:44:44.501Z,49.20
2019-01-24T19:47:13.699Z,47.83
2019-01-24T19:52:31.084Z,50.07
2019-01-24T19:55:00.253Z,47.37
2019-01-24T19:57:29.481Z,48.90
2019-01-24T19:59:58.681Z,47.90
2019-01-24T20:02:28.255Z,44.53
2019-01-24T20:04:57.758Z,49.10
2019-01-24T20:07:27.368Z,47.77
2019-01-24T20:09:56.569Z,47.17
2019-01-24T20:12:25.743Z,45.67
2019-01-24T20:14:54.942Z,47.67
2019-01-24T20:17:24.155Z,49.53
2019-01-24T20:19:53.319Z,48.03
2019-01-24T20:22:22.508Z,51.10
2019-01-24T20:24:51.952Z,48.67
2019-01-24T20:27:21.130Z,48.73
2019-01-24T20:29:50.337Z,49.93
2019-01-24T20:32:19.524Z,52.70
2019-01-24T20:34:48.727Z,49.27
2019-01-24T20:37:18.250Z,49.17
2019-01-24T20:39:48.408Z,54.10
2019-01-24T20:42:17.585Z,54.43
2019-01-24T20:44:47.256Z,47.03
2019-01-24T20:47:16.435Z,55.03
2019-01-24T20:49:45.651Z,48.67
2019-01-24T20:52:15.174Z,52.23
2019-01-24T20:54:44.379Z,46.33
2019-01-24T20:57:13.561Z,50.60
2019-01-24T20:59:42.789Z,51.53
2019-01-24T21:02:12.851Z,50.67
2019-01-24T21:04:42.036Z,57.67
2019-01-24T21:07:11.596Z,52.17
2019-01-24T21:09:40.776Z,49.50
2019-01-24T21:12:09.980Z,49.23
2019-01-24T21:14:39.598Z,47.90
2019-01-24T21:17:08.801Z,40.27
2019-01-24T21:19:38.099Z,44.47
2019-01-24T21:22:07.285Z,45.60
2019-01-24T21:24:36.518Z,38.23
2019-01-24T21:27:05.720Z,35.23
2019-01-24T21:29:34.946Z,37.97
2019-01-24T21:32:04.136Z,35.67
2019-01-24T21:34:33.472Z,37.33
2019-01-24T21:37:02.893Z,36.87
2019-01-24T21:39:32.097Z,36.33
2019-01-24T21:42:02.155Z,37.80
2019-01-24T21:44:31.363Z,42.67
2019-01-24T21:47:00.545Z,36.13
2019-01-24T21:49:29.734Z,37.77
2019-01-24T21:51:58.951Z,39.57
2019-01-24T21:54:28.615Z,44.80
2019-01-24T21:56:57.873Z,41.03
2019-01-24T21:59:27.608Z,39.73
2019-01-24T22:01:57.996Z,45.93
2019-01-24T22:04:27.319Z,45.97
2019-01-24T22:06:56.843Z,41.33
2019-01-24T22:09:29.287Z,38.30
2019-01-24T22:11:56.960Z,42.23
2019-01-24T22:14:26.497Z,43.87
2019-01-24T22:16:57.084Z,45.20
2019-01-24T22:19:26.300Z,46.23
2019-01-24T22:21:55.479Z,41.57
2019-01-24T22:24:24.658Z,44.40
2019-01-24T22:26:53.866Z,46.73
2019-01-24T22:29:23.053Z,49.93
2019-01-24T22:31:52.269Z,43.60
2019-01-24T22:34:21.804Z,42.17
2019-01-24T22:36:51.307Z,44.93
2019-01-24T22:39:20.521Z,41.43
2019-01-24T22:41:49.716Z,48.33
2019-01-24T22:44:19.206Z,46.10
2019-01-24T22:46:48.412Z,41.30
2019-01-24T22:49:17.605Z,45.43
2019-01-24T22:51:46.822Z,42.33
2019-01-24T22:54:15.999Z,47.97
2019-01-24T22:56:45.228Z,43.80
2019-01-24T22:59:14.406Z,39.80
2019-01-24T23:02:05.910Z,43.10
2019-01-24T23:04:35.097Z,42.37
2019-01-24T23:07:04.290Z,46.93
2019-01-24T23:09:33.496Z,41.43
2019-01-24T23:12:02.685Z,45.10
2019-01-24T23:14:31.894Z,44.77
2019-01-24T23:17:01.066Z,43.17
2019-01-24T23:19:30.271Z,47.97
2019-01-24T23:21:59.748Z,42.03
2019-01-24T23:24:29.307Z,45.73
2019-01-24T23:26:58.508Z,45.17
2019-01-24T23:29:27.693Z,42.90
2019-01-24T23:31:56.915Z,43.27
2019-01-24T23:34:26.102Z,43.80
2019-01-24T23:36:55.312Z,43.90
2019-01-24T23:39:24.500Z,46.00
2019-01-24T23:41:53.677Z,39.57
2019-01-24T23:44:22.896Z,41.90
2019-01-24T23:46:52.104Z,41.57
2019-01-24T23:49:21.303Z,41.73
2019-01-24T23:51:50.482Z,47.03
2019-01-24T23:54:19.693Z,41.63
2019-01-24T23:56:48.866Z,38.50
2019-01-24T23:59:18.064Z,42.27
